Time;durP1;ratioP1;P1;durP2;ratioP2;P2;SDS_P1;SDS_P2;PMS_P1;PMS_P2;Temp;Humidity;BMP_temperature;BMP_pressure;BME280_temperature;BME280_humidity;BME280_pressure;Samples;Min_cycle;Max_cycle;Signal;HPM_P1;HPM_P2
2023/04/15 00:00:58;;;;;;;5.93;5.40;;;9.10;99.90;;;;;;4854476;29;20246;-68
2023/04/15 00:03:27;;;;;;;7.03;5.97;;;9.00;99.90;;;;;;4856729;29;20254;-68
2023/04/15 00:05:55;;;;;;;6.47;5.80;;;9.10;99.90;;;;;;4856357;29;20932;-68
2023/04/15 00:08:24;;;;;;;6.93;6.23;;;9.10;99.90;;;;;;4851384;29;20227;-68
2023/04/15 00:10:53;;;;;;;6.77;6.07;;;9.10;99.90;;;;;;4854534;29;20231;-68
2023/04/15 00:13:21;;;;;;;6.77;6.07;;;9.10;99.90;;;;;;4856449;29;20195;-68
2023/04/15 00:15:49;;;;;;;9.53;6.70;;;9.10;99.90;;;;;;4842311;29;20223;-68
2023/04/15 00:18:19;;;;;;;7.67;6.83;;;9.00;99.90;;;;;;4854075;29;20223;-68
2023/04/15 00:20:47;;;;;;;11.03;7.83;;;9.10;99.90;;;;;;4851656;29;20691;-68
2023/04/15 00:23:15;;;;;;;9.70;7.27;;;9.00;99.90;;;;;;4852268;29;20656;-68
2023/04/15 00:25:43;;;;;;;9.97;8.00;;;9.00;99.90;;;;;;4846511;29;20263;-68
2023/04/15 00:28:11;;;;;;;8.67;7.73;;;9.00;99.90;;;;;;4849275;29;20655;-68
2023/04/15 00:30:40;;;;;;;7.67;6.90;;;9.00;99.90;;;;;;4850933;29;20731;-68
2023/04/15 00:33:08;;;;;;;9.43;7.47;;;9.00;99.90;;;;;;4856065;29;20235;-68
2023/04/15 00:35:38;;;;;;;7.63;6.60;;;9.00;99.90;;;;;;4852132;29;20427;-68
2023/04/15 00:38:07;;;;;;;8.97;7.40;;;9.00;99.90;;;;;;4855880;29;20230;-68
2023/04/15 00:40:36;;;;;;;9.40;7.10;;;9.00;99.90;;;;;;4857325;29;20295;-68
2023/04/15 00:43:04;;;;;;;7.60;6.90;;;9.00;99.90;;;;;;4852118;29;20231;-68
2023/04/15 00:45:33;;;;;;;8.43;7.57;;;8.90;99.90;;;;;;4856566;29;20761;-68
2023/04/15 00:48:01;;;;;;;7.33;6.63;;;8.90;99.90;;;;;;4853681;29;20275;-68
2023/04/15 00:50:29;;;;;;;8.83;7.93;;;8.90;99.90;;;;;;4850773;29;20227;-68
2023/04/15 00:52:59;;;;;;;7.67;6.93;;;9.00;99.90;;;;;;4857732;29;20235;-68
2023/04/15 00:55:27;;;;;;;9.03;7.80;;;8.90;99.90;;;;;;4853194;29;20251;-68
2023/04/15 00:57:57;;;;;;;9.03;7.37;;;8.90;99.90;;;;;;4854961;29;20231;-68
2023/04/15 01:00:25;;;;;;;8.53;7.63;;;8.90;99.90;;;;;;4857918;29;20289;-68
2023/04/15 01:02:53;;;;;;;11.03;7.83;;;8.90;99.90;;;;;;4857634;29;20753;-68
2023/04/15 01:05:22;;;;;;;8.77;7.77;;;8.90;99.90;;;;;;4854484;29;20672;-68
2023/04/15 01:07:50;;;;;;;8.47;7.70;;;8.90;99.90;;;;;;4858461;29;20651;-67
2023/04/15 01:10:20;;;;;;;8.50;7.70;;;8.90;99.90;;;;;;4852003;29;20271;-69
2023/04/15 01:12:48;;;;;;;10.43;8.27;;;8.90;99.90;;;;;;4837397;29;20223;-68
2023/04/15 01:15:17;;;;;;;9.63;8.07;;;8.80;99.90;;;;;;4851222;29;20279;-68
2023/04/15 01:17:45;;;;;;;9.83;8.60;;;8.80;99.90;;;;;;4849126;29;20228;-68
2023/04/15 01:20:15;;;;;;;10.83;8.67;;;8.80;99.90;;;;;;4850843;29;20788;-68
2023/04/15 01:22:44;;;;;;;9.87;8.47;;;8.80;99.90;;;;;;4850474;29;20259;-65
2023/04/15 01:25:17;;;;;;;13.53;8.90;;;8.80;99.90;;;;;;4853173;29;20231;-68
2023/04/15 01:27:46;;;;;;;10.07;8.63;;;8.80;99.90;;;;;;4851323;29;20219;-68
2023/04/15 01:30:15;;;;;;;11.07;8.83;;;8.80;99.90;;;;;;4853640;29;20227;-68
2023/04/15 01:32:43;;;;;;;10.57;8.27;;;8.80;99.90;;;;;;4854280;29;20234;-68
2023/04/15 01:35:12;;;;;;;11.07;8.90;;;8.80;99.90;;;;;;4852779;29;20229;-68
2023/04/15 01:37:40;;;;;;;14.33;9.33;;;8.70;99.90;;;;;;4852578;29;22024;-68
2023/04/15 01:40:09;;;;;;;11.63;9.07;;;8.80;99.90;;;;;;4858623;29;20199;-68
2023/04/15 01:42:38;;;;;;;16.40;9.37;;;8.80;99.90;;;;;;4862534;29;20251;-68
2023/04/15 01:45:09;;;;;;;12.40;8.77;;;8.80;99.90;;;;;;4857030;29;20848;-68
2023/04/15 01:47:37;;;;;;;11.57;9.07;;;8.80;99.90;;;;;;4857595;29;20232;-68
2023/04/15 01:50:07;;;;;;;16.37;10.13;;;8.70;99.90;;;;;;4859934;29;20243;-68
2023/04/15 01:52:35;;;;;;;12.13;9.23;;;8.70;99.90;;;;;;4853293;29;20195;-68
2023/04/15 01:55:05;;;;;;;14.00;9.37;;;8.70;99.90;;;;;;4857719;29;20295;-68
2023/04/15 01:57:33;;;;;;;14.10;9.60;;;8.70;99.90;;;;;;4853849;29;20223;-68
2023/04/15 02:00:02;;;;;;;11.57;9.27;;;8.70;99.90;;;;;;4859116;29;20231;-67
2023/04/15 02:02:31;;;;;;;12.70;9.03;;;8.70;99.90;;;;;;4851776;29;22281;-68
2023/04/15 02:05:00;;;;;;;14.00;9.63;;;8.70;99.90;;;;;;4859557;29;20227;-68
2023/04/15 02:07:31;;;;;;;15.27;9.93;;;8.70;99.90;;;;;;4856420;29;20200;-68
2023/04/15 02:09:59;;;;;;;12.97;10.00;;;8.70;99.90;;;;;;4852646;29;20234;-68
2023/04/15 02:12:27;;;;;;;14.97;9.73;;;8.70;99.90;;;;;;4855366;29;20223;-69
2023/04/15 02:14:55;;;;;;;13.97;10.53;;;8.70;99.90;;;;;;4857695;29;20293;-68
2023/04/15 02:17:23;;;;;;;15.80;10.83;;;8.70;99.90;;;;;;4854926;29;20275;-68
2023/04/15 02:19:53;;;;;;;13.17;10.73;;;8.60;99.90;;;;;;4858901;29;20188;-68
2023/04/15 02:22:22;;;;;;;13.83;10.87;;;8.60;99.90;;;;;;4853990;29;20686;-68
2023/04/15 02:24:50;;;;;;;16.03;11.20;;;8.60;99.90;;;;;;4858572;29;20223;-69
2023/04/15 02:27:18;;;;;;;15.43;10.97;;;8.60;99.90;;;;;;4858036;29;20287;-68
2023/04/15 02:29:46;;;;;;;14.50;10.93;;;8.60;99.90;;;;;;4855582;29;20319;-68
2023/04/15 02:32:15;;;;;;;17.10;11.80;;;8.60;99.90;;;;;;4852471;29;20268;-68
2023/04/15 02:34:43;;;;;;;16.10;11.27;;;8.60;99.90;;;;;;4854123;29;20296;-64
2023/04/15 02:37:14;;;;;;;18.87;11.30;;;8.60;99.90;;;;;;4854345;29;20222;-68
2023/04/15 02:39:43;;;;;;;13.40;10.43;;;8.50;99.90;;;;;;4857900;29;20232;-68
2023/04/15 02:42:12;;;;;;;13.13;9.90;;;8.50;99.90;;;;;;4853767;29;20720;-68
2023/04/15 02:44:40;;;;;;;12.47;9.53;;;8.50;99.90;;;;;;4853856;29;20246;-68
2023/04/15 02:47:10;;;;;;;14.47;9.80;;;8.50;99.90;;;;;;4858828;29;20586;-68
2023/04/15 02:49:39;;;;;;;15.63;9.83;;;8.50;99.90;;;;;;4859146;29;20219;-66
2023/04/15 02:52:07;;;;;;;12.80;9.83;;;8.50;99.90;;;;;;4854262;29;20207;-68
2023/04/15 02:54:37;;;;;;;14.47;9.73;;;8.50;99.90;;;;;;4855280;29;20642;-68
2023/04/15 02:57:05;;;;;;;18.30;10.40;;;8.60;99.90;;;;;;4852627;29;20262;-68
2023/04/15 02:59:33;;;;;;;15.40;11.03;;;8.50;99.90;;;;;;4852275;29;20227;-68
2023/04/15 03:02:02;;;;;;;16.47;11.00;;;8.50;99.90;;;;;;4856304;29;20263;-69
2023/04/15 03:04:30;;;;;;;16.57;10.00;;;8.50;99.90;;;;;;4855986;29;20299;-68
2023/04/15 03:06:59;;;;;;;14.83;10.60;;;8.50;99.90;;;;;;4852910;29;20231;-68
2023/04/15 03:09:28;;;;;;;16.23;10.90;;;8.50;99.90;;;;;;4843527;29;20223;-68
2023/04/15 03:11:57;;;;;;;18.27;10.93;;;8.50;99.90;;;;;;4853177;29;20227;-68
2023/04/15 03:14:25;;;;;;;16.33;10.67;;;8.50;99.90;;;;;;4859605;29;20251;-68
2023/04/15 03:16:54;;;;;;;17.47;10.93;;;8.50;99.90;;;;;;4855067;29;20193;-68
2023/04/15 03:19:22;;;;;;;12.93;9.83;;;8.50;99.90;;;;;;4858876;29;20231;-68
2023/04/15 03:21:50;;;;;;;14.83;10.77;;;8.50;99.90;;;;;;4850276;29;20255;-68
2023/04/15 03:24:19;;;;;;;21.90;11.27;;;8.50;99.90;;;;;;4849109;29;20314;-69
2023/04/15 03:26:47;;;;;;;15.20;10.90;;;8.50;99.90;;;;;;4859159;29;20226;-68
2023/04/15 03:29:16;;;;;;;14.47;9.47;;;8.50;99.90;;;;;;4857375;29;20326;-68
2023/04/15 03:31:45;;;;;;;12.17;9.43;;;8.50;99.90;;;;;;4845375;29;20683;-68
2023/04/15 03:34:13;;;;;;;13.87;10.00;;;8.40;99.90;;;;;;4859252;29;20207;-68
2023/04/15 03:36:41;;;;;;;16.07;9.93;;;8.40;99.90;;;;;;4854664;29;20223;-68
2023/04/15 03:39:09;;;;;;;15.50;9.83;;;8.40;99.90;;;;;;4854532;29;20244;-68
2023/04/15 03:41:37;;;;;;;10.97;9.23;;;8.40;99.90;;;;;;4855080;29;20719;-68
2023/04/15 03:44:06;;;;;;;13.60;9.47;;;8.40;99.90;;;;;;4855994;29;20591;-68
2023/04/15 03:46:36;;;;;;;16.00;10.57;;;8.40;99.90;;;;;;4859005;29;20196;-68
2023/04/15 03:49:05;;;;;;;15.67;10.00;;;8.40;99.90;;;;;;4857720;29;20219;-68
2023/04/15 03:51:33;;;;;;;15.67;9.70;;;8.40;99.90;;;;;;4851380;29;20215;-68
2023/04/15 03:54:02;;;;;;;13.27;10.00;;;8.40;99.90;;;;;;4858246;29;20223;-68
2023/04/15 03:56:30;;;;;;;12.50;9.83;;;8.40;99.90;;;;;;4841688;29;20236;-67
2023/04/15 03:58:58;;;;;;;11.30;9.93;;;8.40;99.90;;;;;;4856704;29;20284;-67
2023/04/15 04:01:27;;;;;;;12.73;9.73;;;8.40;99.90;;;;;;4842697;29;20278;-67
2023/04/15 04:03:57;;;;;;;10.37;9.17;;;8.40;99.90;;;;;;4857176;29;20224;-67
2023/04/15 04:06:25;;;;;;;11.63;9.67;;;8.40;99.90;;;;;;4857964;29;20300;-67
2023/04/15 04:08:53;;;;;;;12.40;9.20;;;8.40;99.90;;;;;;4855309;29;20223;-67
2023/04/15 04:11:21;;;;;;;10.63;9.50;;;8.40;99.90;;;;;;4849828;29;20746;-68
2023/04/15 04:13:50;;;;;;;14.30;9.83;;;8.40;99.90;;;;;;4854733;29;20255;-68
2023/04/15 04:16:18;;;;;;;14.70;10.73;;;8.30;99.90;;;;;;4855534;29;20199;-67
2023/04/15 04:18:46;;;;;;;14.60;10.47;;;8.30;99.90;;;;;;4855875;29;20600;-67
2023/04/15 04:21:16;;;;;;;13.37;10.43;;;8.20;99.90;;;;;;4854214;29;20220;-67
2023/04/15 04:23:44;;;;;;;16.40;11.20;;;8.30;99.90;;;;;;4857313;29;20275;-67
2023/04/15 04:26:12;;;;;;;15.17;10.80;;;8.30;99.90;;;;;;4852993;29;20671;-67
2023/04/15 04:28:40;;;;;;;15.20;10.47;;;8.30;99.90;;;;;;4854485;29;20671;-66
2023/04/15 04:31:08;;;;;;;14.60;11.67;;;8.30;99.90;;;;;;4854555;29;20203;-67
2023/04/15 04:33:37;;;;;;;15.00;11.40;;;8.30;99.90;;;;;;4856394;29;20220;-67
2023/04/15 04:36:05;;;;;;;14.50;11.47;;;8.30;99.90;;;;;;4855985;29;20994;-67
2023/04/15 04:38:35;;;;;;;13.40;11.13;;;8.30;99.90;;;;;;4850984;29;20224;-67
2023/04/15 04:41:03;;;;;;;15.87;12.00;;;8.30;99.90;;;;;;4849563;29;20220;-67
2023/04/15 04:43:31;;;;;;;18.73;12.43;;;8.30;99.90;;;;;;4855776;29;20671;-67
2023/04/15 04:46:00;;;;;;;17.87;13.20;;;8.30;99.90;;;;;;4854097;29;20227;-67
2023/04/15 04:48:28;;;;;;;15.60;11.77;;;8.30;99.90;;;;;;4854528;29;20262;-67
2023/04/15 04:50:57;;;;;;;18.30;13.20;;;8.30;99.90;;;;;;4850470;29;20232;-66
2023/04/15 04:53:25;;;;;;;20.83;12.23;;;8.30;99.90;;;;;;4846105;29;20284;-67
2023/04/15 04:55:55;;;;;;;18.23;13.83;;;8.30;99.90;;;;;;4857041;29;20196;-67
2023/04/15 04:58:23;;;;;;;18.23;12.77;;;8.30;99.90;;;;;;4856900;29;20212;-67
2023/04/15 05:00:51;;;;;;;21.30;13.43;;;8.30;99.90;;;;;;4855771;29;20718;-67
2023/04/15 05:03:20;;;;;;;16.60;13.20;;;8.30;99.90;;;;;;4842170;29;20227;-66
2023/04/15 05:05:49;;;;;;;16.10;12.80;;;8.30;99.90;;;;;;4852639;29;20280;-67
2023/04/15 05:08:17;;;;;;;18.13;13.07;;;8.30;99.90;;;;;;4858805;29;20223;-68
2023/04/15 05:10:45;;;;;;;18.00;13.13;;;8.30;99.90;;;;;;4850910;29;20615;-66
2023/04/15 05:13:15;;;;;;;20.80;13.67;;;8.30;99.90;;;;;;4849570;29;20225;-67
2023/04/15 05:15:44;;;;;;;18.27;13.97;;;8.30;99.90;;;;;;4848770;29;20227;-67
2023/04/15 05:18:12;;;;;;;19.87;13.20;;;8.30;99.90;;;;;;4847188;29;20232;-67
2023/04/15 05:20:41;;;;;;;18.87;14.03;;;8.30;99.90;;;;;;4854937;29;20222;-67
2023/04/15 05:23:09;;;;;;;20.07;13.87;;;8.30;99.90;;;;;;4855216;29;20216;-67
2023/04/15 05:25:37;;;;;;;20.13;14.07;;;8.40;99.90;;;;;;4853901;29;20216;-67
2023/04/15 05:28:06;;;;;;;21.50;13.20;;;8.40;99.90;;;;;;4853310;29;20308;-67
2023/04/15 05:30:35;;;;;;;17.93;13.30;;;8.40;99.90;;;;;;4856334;29;20295;-67
2023/04/15 05:33:04;;;;;;;17.97;13.00;;;8.40;99.90;;;;;;4851561;29;20648;-67
2023/04/15 05:35:32;;;;;;;17.10;13.43;;;8.50;99.90;;;;;;4849709;29;20606;-67
2023/04/15 05:38:01;;;;;;;19.93;13.93;;;8.50;99.90;;;;;;4853791;29;20242;-68
2023/04/15 05:40:30;;;;;;;19.47;13.37;;;8.50;99.90;;;;;;4852352;29;20682;-67
2023/04/15 05:42:58;;;;;;;20.70;12.53;;;8.50;99.90;;;;;;4850438;29;20280;-67
2023/04/15 05:45:27;;;;;;;19.60;13.50;;;8.60;99.90;;;;;;4849849;29;20673;-67
2023/04/15 05:47:56;;;;;;;17.40;12.27;;;8.60;99.90;;;;;;4850376;29;20726;-67
2023/04/15 05:50:25;;;;;;;15.97;12.47;;;8.60;99.90;;;;;;4852236;29;20598;-67
2023/04/15 05:52:53;;;;;;;16.63;12.83;;;8.70;99.90;;;;;;4852540;29;20207;-67
2023/04/15 05:55:22;;;;;;;18.33;13.77;;;8.70;99.90;;;;;;4850339;29;20191;-67
2023/04/15 05:57:51;;;;;;;19.10;12.53;;;8.80;99.90;;;;;;4849802;29;20564;-67
2023/04/15 06:00:20;;;;;;;19.47;12.90;;;8.80;99.90;;;;;;4851694;29;20303;-68
2023/04/15 06:02:48;;;;;;;20.13;13.00;;;8.90;99.90;;;;;;4852433;29;20230;-67
2023/04/15 06:05:18;;;;;;;19.90;12.93;;;8.90;99.90;;;;;;4852071;29;20641;-67
2023/04/15 06:07:46;;;;;;;22.90;13.60;;;9.00;99.90;;;;;;4837597;29;20267;-66
2023/04/15 06:10:15;;;;;;;21.60;14.53;;;9.00;99.90;;;;;;4853183;29;20199;-67
2023/04/15 06:12:44;;;;;;;16.77;12.87;;;9.00;99.90;;;;;;4851990;29;20715;-67
2023/04/15 06:15:12;;;;;;;19.43;13.40;;;9.10;99.90;;;;;;4858382;29;20227;-66
2023/04/15 06:17:40;;;;;;;17.77;13.37;;;9.20;99.90;;;;;;4850541;29;20795;-66
2023/04/15 06:20:10;;;;;;;15.73;12.37;;;9.20;99.90;;;;;;4849868;29;20228;-67
2023/04/15 06:22:40;;;;;;;21.33;12.97;;;9.20;99.90;;;;;;4853941;29;20256;-64
2023/04/15 06:25:09;;;;;;;17.90;12.83;;;9.30;99.90;;;;;;4854411;29;20220;-66
2023/04/15 06:27:38;;;;;;;16.70;12.60;;;9.30;99.90;;;;;;4842765;29;20268;-66
2023/04/15 06:30:07;;;;;;;19.10;13.07;;;9.40;99.90;;;;;;4853172;29;20228;-66
2023/04/15 06:32:35;;;;;;;18.00;12.97;;;9.50;99.90;;;;;;4857330;29;20219;-66
2023/04/15 06:35:04;;;;;;;17.67;13.47;;;9.60;99.90;;;;;;4855217;29;20283;-66
2023/04/15 06:37:32;;;;;;;17.23;11.77;;;9.80;99.90;;;;;;4858122;29;20204;-66
2023/04/15 06:40:03;;;;;;;17.50;12.63;;;9.90;99.90;;;;;;4859468;29;20247;-66
2023/04/15 06:42:35;;;;;;;24.43;11.90;;;10.00;99.90;;;;;;4841808;29;20287;-65
2023/04/15 06:45:04;;;;;;;13.47;10.93;;;10.10;99.90;;;;;;4834285;29;20276;-66
2023/04/15 06:47:32;;;;;;;14.97;10.50;;;10.20;99.90;;;;;;4855828;29;20228;-65
2023/04/15 06:50:01;;;;;;;14.77;10.07;;;10.30;99.90;;;;;;4860370;29;20250;-66
2023/04/15 06:52:29;;;;;;;16.13;10.13;;;10.30;99.90;;;;;;4843560;29;20199;-68
2023/04/15 06:54:58;;;;;;;13.83;9.93;;;10.50;99.90;;;;;;4860042;29;20242;-66
2023/04/15 06:57:28;;;;;;;16.03;9.53;;;10.60;99.90;;;;;;4855893;29;20377;-66
2023/04/15 06:59:56;;;;;;;14.43;8.90;;;10.80;99.90;;;;;;4859475;29;20223;-68
2023/04/15 07:02:25;;;;;;;16.40;9.43;;;10.80;99.90;;;;;;4853569;29;20664;-69
2023/04/15 07:04:53;;;;;;;12.60;9.63;;;10.90;99.90;;;;;;4855304;29;20215;-65
2023/04/15 07:07:21;;;;;;;8.60;7.80;;;11.20;99.90;;;;;;4852475;29;21351;-66
2023/04/15 07:09:50;;;;;;;12.17;8.93;;;11.40;99.90;;;;;;4851665;29;20287;-65
2023/04/15 07:12:18;;;;;;;8.77;7.80;;;11.70;99.90;;;;;;4852211;29;20766;-66
2023/04/15 07:14:48;;;;;;;8.90;7.83;;;12.10;99.90;;;;;;4859034;29;20223;-66
2023/04/15 07:17:16;;;;;;;8.50;7.00;;;12.40;99.90;;;;;;4843793;29;20227;-66
2023/04/15 07:19:44;;;;;;;11.17;7.10;;;12.60;99.90;;;;;;4835708;29;20192;-66
2023/04/15 07:22:13;;;;;;;9.43;6.60;;;12.70;99.90;;;;;;4854742;29;20252;-66
2023/04/15 07:24:41;;;;;;;10.60;6.17;;;12.60;99.90;;;;;;4843733;29;20710;-68
2023/04/15 07:27:09;;;;;;;9.57;6.63;;;12.60;99.90;;;;;;4852540;29;20342;-66
2023/04/15 07:29:37;;;;;;;10.43;7.10;;;12.80;99.90;;;;;;4852108;29;20702;-66
2023/04/15 07:32:09;;;;;;;11.67;7.17;;;12.70;99.90;;;;;;4854577;29;20296;-66
2023/04/15 07:34:37;;;;;;;8.37;6.33;;;12.60;99.90;;;;;;4857455;29;20223;-68
2023/04/15 07:37:05;;;;;;;10.93;7.00;;;12.60;99.90;;;;;;4857577;29;20223;-68
2023/04/15 07:39:33;;;;;;;12.30;7.53;;;12.50;99.90;;;;;;4858197;29;20649;-67
2023/04/15 07:42:02;;;;;;;11.00;7.90;;;12.40;99.90;;;;;;4860424;29;20239;-68
2023/04/15 07:44:31;;;;;;;11.20;7.73;;;12.50;99.90;;;;;;4855302;29;20238;-66
2023/04/15 07:46:59;;;;;;;14.73;7.93;;;12.60;99.90;;;;;;4857341;29;20231;-65
2023/04/15 07:49:29;;;;;;;14.77;8.57;;;12.50;99.90;;;;;;4859738;29;20198;-65
2023/04/15 07:51:58;;;;;;;15.57;8.27;;;12.70;99.90;;;;;;4856904;29;20251;-66
2023/04/15 07:54:27;;;;;;;11.03;8.23;;;12.70;99.90;;;;;;4856940;29;20223;-65
2023/04/15 07:56:56;;;;;;;8.77;7.70;;;12.70;99.90;;;;;;4856208;29;20624;-66
2023/04/15 07:59:24;;;;;;;10.67;8.70;;;12.90;99.90;;;;;;4854022;29;20235;-68
2023/04/15 08:01:53;;;;;;;12.33;8.00;;;13.20;99.90;;;;;;4849192;29;20549;-68
2023/04/15 08:04:21;;;;;;;11.43;7.90;;;13.50;99.90;;;;;;4860498;29;20290;-68
2023/04/15 08:06:51;;;;;;;13.70;8.70;;;13.80;99.90;;;;;;4858347;29;20246;-66
2023/04/15 08:09:19;;;;;;;11.00;9.27;;;14.30;99.90;;;;;;4858949;29;20683;-66
2023/04/15 08:11:49;;;;;;;15.87;10.40;;;14.80;99.90;;;;;;4851588;29;20227;-66
2023/04/15 08:14:17;;;;;;;13.27;10.40;;;15.00;99.90;;;;;;4858032;29;20689;-66
2023/04/15 08:16:46;;;;;;;13.77;10.40;;;15.30;99.90;;;;;;4856568;29;20195;-65
2023/04/15 08:19:14;;;;;;;15.73;10.63;;;15.70;99.90;;;;;;4854093;29;20573;-66
2023/04/15 08:21:42;;;;;;;16.33;9.47;;;16.30;99.90;;;;;;4854575;29;20284;-67
2023/04/15 08:24:12;;;;;;;18.77;9.53;;;16.70;99.90;;;;;;4857282;29;20259;-67
2023/04/15 08:26:40;;;;;;;14.30;9.20;;;17.10;99.90;;;;;;4859348;29;20717;-67
2023/04/15 08:29:09;;;;;;;13.50;9.17;;;17.70;99.90;;;;;;4857104;29;20692;-67
2023/04/15 08:31:37;;;;;;;12.53;8.43;;;17.90;99.90;;;;;;4857894;29;20292;-67
2023/04/15 08:34:06;;;;;;;14.00;9.33;;;18.30;99.90;;;;;;4855574;29;20645;-67
2023/04/15 08:36:34;;;;;;;14.67;9.23;;;18.50;99.90;;;;;;4857196;29;20723;-67
2023/04/15 08:39:03;;;;;;;14.60;9.03;;;18.70;99.90;;;;;;4839181;29;20284;-67
2023/04/15 08:41:39;;;;;;;21.97;9.87;;;18.20;99.90;;;;;;4851356;29;20228;-67
2023/04/15 08:44:08;;;;;;;11.73;8.67;;;18.20;99.90;;;;;;4856604;29;20230;-67
2023/04/15 08:46:38;;;;;;;17.97;9.03;;;18.30;99.90;;;;;;4854099;29;20218;-67
2023/04/15 08:49:10;;;;;;;13.60;9.57;;;18.10;99.90;;;;;;4854549;29;20584;-67
2023/04/15 08:51:40;;;;;;;11.40;9.50;;;18.40;99.90;;;;;;4847783;29;20229;-67
2023/04/15 08:54:09;;;;;;;14.53;9.00;;;18.80;99.90;;;;;;4857263;29;20284;-67
2023/04/15 08:56:39;;;;;;;16.10;8.63;;;19.10;99.90;;;;;;4852781;29;20281;-67
2023/04/15 08:59:10;;;;;;;10.90;8.87;;;18.70;99.90;;;;;;4853184;29;20328;-67
2023/04/15 09:01:39;;;;;;;10.63;8.80;;;18.80;99.90;;;;;;4850376;29;20289;-60
2023/04/15 09:04:07;;;;;;;13.43;8.80;;;19.10;99.90;;;;;;4855617;29;20204;-67
2023/04/15 09:06:36;;;;;;;12.77;8.83;;;19.40;99.90;;;;;;4856670;29;20282;-67
2023/04/15 09:09:04;;;;;;;10.67;8.63;;;19.30;99.90;;;;;;4851840;29;20824;-67
2023/04/15 09:11:32;;;;;;;12.33;8.93;;;19.40;99.90;;;;;;4853378;29;20224;-67
2023/04/15 09:14:02;;;;;;;14.53;8.97;;;18.90;99.90;;;;;;4850457;29;20276;-67
2023/04/15 09:16:31;;;;;;;12.43;8.70;;;18.80;99.90;;;;;;4848224;29;20197;-67
2023/04/15 09:18:59;;;;;;;11.57;8.97;;;18.40;99.90;;;;;;4851385;29;20279;-67
2023/04/15 09:21:28;;;;;;;18.10;9.10;;;18.20;99.90;;;;;;4848648;29;20231;-67
2023/04/15 09:23:58;;;;;;;13.30;9.27;;;18.20;99.90;;;;;;4851732;29;20254;-66
2023/04/15 09:26:34;;;;;;;12.23;8.43;;;18.20;99.90;;;;;;4848573;29;20227;-67
2023/04/15 09:29:08;;;;;;;12.57;9.13;;;18.20;99.90;;;;;;4850245;29;20234;-67
2023/04/15 09:31:36;;;;;;;11.77;8.73;;;18.10;99.90;;;;;;4847411;29;22092;-67
2023/04/15 09:34:05;;;;;;;10.60;9.03;;;18.30;99.90;;;;;;4853164;29;20228;-67
2023/04/15 09:36:53;;;;;;;12.23;9.13;;;18.20;99.90;;;;;;4855500;29;20234;-67
2023/04/15 09:39:22;;;;;;;10.37;8.07;;;18.60;99.90;;;;;;4850313;29;20330;-68
2023/04/15 09:42:06;;;;;;;9.63;7.83;;;19.10;99.90;;;;;;4852895;29;20603;-67
2023/04/15 09:44:37;;;;;;;12.97;8.20;;;19.50;99.90;;;;;;4853573;29;20234;-67
2023/04/15 09:47:06;;;;;;;9.10;7.63;;;19.40;99.90;;;;;;4851948;29;20725;-67
2023/04/15 09:49:34;;;;;;;11.53;7.80;;;19.50;99.90;;;;;;4852891;29;20730;-67
2023/04/15 09:52:04;;;;;;;9.20;7.30;;;20.00;99.90;;;;;;4853563;29;20233;-67
2023/04/15 09:54:38;;;;;;;11.50;7.57;;;20.60;99.90;;;;;;4846969;29;20281;-67
2023/04/15 09:57:08;;;;;;;7.50;6.80;;;21.50;99.90;;;;;;4848940;29;20318;-67
2023/04/15 09:59:38;;;;;;;9.93;7.27;;;21.70;99.90;;;;;;4853289;29;20229;-67
2023/04/15 10:02:07;;;;;;;6.83;6.30;;;21.30;99.90;;;;;;4853431;29;20237;-68
2023/04/15 10:04:38;;;;;;;9.30;6.87;;;20.80;99.90;;;;;;4851580;29;20229;-67
2023/04/15 10:07:08;;;;;;;9.30;6.87;;;21.20;99.90;;;;;;4856651;29;20218;-67
2023/04/15 10:09:38;;;;;;;7.23;6.53;;;21.70;99.90;;;;;;4834562;29;20220;-69
2023/04/15 10:12:06;;;;;;;13.10;6.50;;;22.40;99.90;;;;;;4856276;29;20711;-69
2023/04/15 10:14:37;;;;;;;7.00;6.07;;;22.90;99.90;;;;;;4853196;29;20223;-69
2023/04/15 10:17:11;;;;;;;6.25;5.47;;;23.80;99.90;;;;;;4856783;29;20244;-68
2023/04/15 10:19:39;;;;;;;4.57;4.18;;;24.20;99.90;;;;;;4854326;29;20271;-67
2023/04/15 10:22:08;;;;;;;5.53;4.05;;;24.50;99.70;;;;;;4856164;29;20238;-69
2023/04/15 10:24:38;;;;;;;5.32;4.30;;;23.70;98.70;;;;;;4858243;29;20224;-69
2023/04/15 10:27:07;;;;;;;4.75;3.95;;;23.50;96.70;;;;;;4855212;29;20229;-69
2023/04/15 10:29:36;;;;;;;5.80;4.63;;;23.80;95.40;;;;;;4854821;29;20240;-69
2023/04/15 10:32:05;;;;;;;5.43;3.58;;;23.80;98.50;;;;;;4856122;29;20236;-69
2023/04/15 10:34:35;;;;;;;3.60;3.30;;;23.70;91.60;;;;;;4859897;29;20208;-68
2023/04/15 10:37:09;;;;;;;3.77;2.97;;;22.00;93.00;;;;;;4859133;29;20266;-68
2023/04/15 10:39:43;;;;;;;2.87;2.60;;;21.30;91.70;;;;;;4857585;29;20284;-69
2023/04/15 10:42:13;;;;;;;3.97;3.43;;;21.80;94.20;;;;;;4853347;29;20282;-69
2023/04/15 10:44:43;;;;;;;3.90;3.60;;;22.30;92.80;;;;;;4851959;29;20225;-69
2023/04/15 10:47:12;;;;;;;4.40;4.00;;;22.20;94.00;;;;;;4852630;29;21068;-69
2023/04/15 10:49:46;;;;;;;4.47;4.17;;;21.70;95.50;;;;;;4856327;29;20197;-68
2023/04/15 10:52:16;;;;;;;4.40;4.10;;;22.00;95.20;;;;;;4855826;29;22102;-68
2023/04/15 10:54:45;;;;;;;4.80;4.27;;;22.10;96.10;;;;;;4840313;29;20233;-68
2023/04/15 10:57:22;;;;;;;5.00;4.13;;;21.60;99.70;;;;;;4856721;29;20223;-68
2023/04/15 11:00:03;;;;;;;4.60;4.17;;;21.70;96.70;;;;;;4856041;29;20225;-68
2023/04/15 11:02:52;;;;;;;4.43;4.00;;;20.60;97.00;;;;;;4856663;29;20233;-68
2023/04/15 11:05:23;;;;;;;3.70;3.40;;;20.60;99.40;;;;;;4852706;29;20273;-68
2023/04/15 11:07:54;;;;;;;4.07;3.40;;;21.30;96.90;;;;;;4851186;29;20224;-68
2023/04/15 11:10:56;;;;;;;4.17;3.77;;;21.70;94.80;;;;;;4853447;29;20223;-68
2023/04/15 11:13:29;;;;;;;3.20;3.00;;;20.40;96.10;;;;;;4854203;29;20236;-68
2023/04/15 11:16:02;;;;;;;3.50;3.20;;;20.50;96.90;;;;;;4855449;29;20281;-68
2023/04/15 11:18:32;;;;;;;2.63;2.43;;;20.60;93.90;;;;;;4853417;29;20564;-68
2023/04/15 11:21:04;;;;;;;3.07;2.80;;;20.40;92.30;;;;;;4857363;29;20228;-69
2023/04/15 11:23:35;;;;;;;3.33;2.80;;;20.20;92.40;;;;;;4849782;29;20236;-69
2023/04/15 11:26:08;;;;;;;3.37;3.10;;;20.80;94.20;;;;;;4852510;29;20231;-68
2023/04/15 11:28:38;;;;;;;4.63;3.40;;;20.10;92.40;;;;;;4858801;29;20215;-68
2023/04/15 11:31:10;;;;;;;4.63;3.50;;;19.60;93.20;;;;;;4838136;29;20235;-68
2023/04/15 11:33:44;;;;;;;3.90;3.43;;;19.30;92.90;;;;;;4856377;29;20721;-68
2023/04/15 11:36:14;;;;;;;3.43;3.13;;;20.10;96.60;;;;;;4859539;29;20231;-68
2023/04/15 11:38:44;;;;;;;3.33;3.13;;;21.10;97.40;;;;;;4854529;29;20322;-69
2023/04/15 11:41:12;;;;;;;3.27;2.97;;;21.60;95.00;;;;;;4856385;29;20674;-68
2023/04/15 11:43:42;;;;;;;3.40;3.23;;;22.00;93.70;;;;;;4855506;29;20574;-68
2023/04/15 11:46:10;;;;;;;3.10;2.90;;;21.90;93.70;;;;;;4857708;29;20209;-68
2023/04/15 11:48:42;;;;;;;3.47;3.20;;;21.90;93.00;;;;;;4850934;29;20318;-68
2023/04/15 11:51:12;;;;;;;4.03;3.73;;;21.50;92.20;;;;;;4852679;29;20764;-68
2023/04/15 11:53:43;;;;;;;4.90;3.37;;;20.90;92.40;;;;;;4856110;29;20221;-68
2023/04/15 11:56:18;;;;;;;3.27;3.07;;;21.00;91.90;;;;;;4865055;23;20225;-69
2023/04/15 11:58:47;;;;;;;3.93;3.00;;;21.40;92.00;;;;;;4855554;29;20224;-68
2023/04/15 12:01:15;;;;;;;2.80;2.60;;;20.60;89.50;;;;;;4855194;29;20251;-68
2023/04/15 12:03:45;;;;;;;3.23;2.80;;;20.70;88.70;;;;;;4853411;29;20283;-69
2023/04/15 12:06:17;;;;;;;4.80;3.17;;;20.50;90.90;;;;;;4852330;29;20233;-68
2023/04/15 12:09:08;;;;;;;3.10;3.00;;;19.80;90.00;;;;;;4851448;29;20231;-68
2023/04/15 12:11:41;;;;;;;3.17;2.90;;;19.40;92.70;;;;;;4850374;29;20227;-68
2023/04/15 12:14:12;;;;;;;4.67;3.20;;;19.50;93.80;;;;;;4861044;29;20238;-68
2023/04/15 12:16:42;;;;;;;4.00;2.77;;;19.80;91.00;;;;;;4854147;29;20191;-68
2023/04/15 12:19:20;;;;;;;3.30;2.97;;;20.30;93.30;;;;;;4852793;29;20199;-68
2023/04/15 12:21:49;;;;;;;3.97;3.70;;;20.20;88.60;;;;;;4850597;29;20258;-68
2023/04/15 12:24:21;;;;;;;5.43;4.03;;;19.50;90.00;;;;;;4851329;29;20223;-68
2023/04/15 12:26:51;;;;;;;4.13;3.80;;;18.90;90.80;;;;;;4851686;29;20276;-68
2023/04/15 12:29:21;;;;;;;3.20;3.10;;;18.80;97.20;;;;;;4849097;29;20263;-68
2023/04/15 12:31:51;;;;;;;3.40;3.23;;;19.40;95.50;;;;;;4858575;29;20195;-68
2023/04/15 12:34:28;;;;;;;2.77;2.57;;;19.60;90.80;;;;;;4857426;29;20191;-68
2023/04/15 12:36:57;;;;;;;2.60;2.40;;;19.70;91.00;;;;;;4857639;29;20271;-68
2023/04/15 12:39:30;;;;;;;2.47;2.37;;;19.60;90.40;;;;;;4862263;29;20246;-68
2023/04/15 12:41:59;;;;;;;5.23;2.90;;;19.60;90.30;;;;;;4857304;29;20568;-68
2023/04/15 12:44:28;;;;;;;2.50;2.30;;;19.20;86.50;;;;;;4861782;29;20237;-68
2023/04/15 12:46:57;;;;;;;3.20;2.90;;;18.60;92.00;;;;;;4858117;29;20192;-68
2023/04/15 12:49:25;;;;;;;3.07;2.87;;;18.80;91.50;;;;;;4858276;29;20227;-68
2023/04/15 12:51:56;;;;;;;3.50;3.30;;;19.00;94.80;;;;;;4858316;29;20238;-68
2023/04/15 12:54:25;;;;;;;2.97;2.87;;;19.10;91.90;;;;;;4852969;29;20247;-68